createdAt,value
2023-11-03T00:02:24.133Z,8.22
2023-11-03T00:04:50.664Z,8.12
2023-11-03T00:07:17.171Z,8.11
2023-11-03T00:09:43.659Z,8.16
2023-11-03T00:12:10.172Z,8.14
2023-11-03T00:14:36.648Z,8.16
2023-11-03T00:17:03.101Z,8.16
2023-11-03T00:19:29.730Z,8.16
2023-11-03T00:21:56.310Z,8.20
2023-11-03T00:24:22.771Z,8.21
2023-11-03T00:26:49.230Z,8.21
2023-11-03T00:29:15.673Z,8.24
2023-11-03T00:31:42.148Z,8.27
2023-11-03T00:34:08.645Z,8.31
2023-11-03T00:36:35.128Z,8.29
2023-11-03T00:39:01.593Z,8.29
2023-11-03T00:41:28.081Z,8.27
2023-11-03T00:43:54.550Z,8.26
2023-11-03T00:46:20.986Z,8.30
2023-11-03T00:48:47.531Z,8.29
2023-11-03T00:51:14.002Z,8.27
2023-11-03T00:53:40.449Z,8.23
2023-11-03T00:56:06.963Z,8.21
2023-11-03T00:58:33.405Z,8.21
2023-11-03T01:00:59.912Z,8.22
2023-11-03T01:03:26.439Z,8.23
2023-11-03T01:05:52.956Z,8.23
2023-11-03T01:08:19.423Z,8.24
2023-11-03T01:10:45.900Z,8.18
2023-11-03T01:13:15.827Z,8.10
2023-11-03T01:15:42.856Z,8.08
2023-11-03T01:18:09.496Z,8.10
2023-11-03T01:20:35.958Z,8.13
2023-11-03T01:23:02.446Z,8.13
2023-11-03T01:25:28.879Z,8.14
2023-11-03T01:27:55.355Z,8.19
2023-11-03T01:30:21.985Z,8.24
2023-11-03T01:32:48.691Z,8.27
2023-11-03T01:35:15.180Z,8.22
2023-11-03T01:37:41.643Z,8.15
2023-11-03T01:40:08.105Z,8.15
2023-11-03T01:42:34.645Z,8.15
2023-11-03T01:45:01.168Z,8.16
2023-11-03T01:47:27.634Z,8.17
2023-11-03T01:49:54.108Z,8.17
2023-11-03T01:52:20.564Z,8.17
2023-11-03T01:54:47.078Z,8.16
2023-11-03T01:57:13.567Z,8.11
2023-11-03T01:59:40.057Z,8.12
2023-11-03T02:02:06.513Z,8.12
2023-11-03T02:04:32.991Z,8.16
2023-11-03T02:06:59.433Z,8.16
2023-11-03T02:09:25.904Z,8.14
2023-11-03T02:11:52.344Z,8.15
2023-11-03T02:14:18.982Z,8.13
2023-11-03T02:16:45.476Z,8.14
2023-11-03T02:19:15.495Z,8.14
2023-11-03T02:21:43.114Z,8.18
2023-11-03T02:24:09.596Z,8.20
2023-11-03T02:26:36.111Z,8.20
2023-11-03T02:29:02.593Z,8.19
2023-11-03T02:31:29.025Z,8.19
2023-11-03T02:33:55.501Z,8.17
2023-11-03T02:36:22.000Z,8.15
2023-11-03T02:38:48.443Z,8.15
2023-11-03T02:41:14.900Z,8.13
2023-11-03T02:43:41.338Z,8.09
2023-11-03T02:46:07.835Z,8.00
2023-11-03T02:48:34.323Z,7.96
2023-11-03T02:51:00.808Z,7.92
2023-11-03T02:53:27.274Z,7.89
2023-11-03T02:55:53.730Z,7.88
2023-11-03T02:58:20.201Z,7.83
2023-11-03T03:00:46.647Z,7.81
2023-11-03T03:03:13.129Z,7.77
2023-11-03T03:05:39.624Z,7.74
2023-11-03T03:08:06.111Z,7.66
2023-11-03T03:10:32.591Z,7.68
2023-11-03T03:12:59.039Z,7.70
2023-11-03T03:15:25.508Z,7.69
2023-11-03T03:17:52.062Z,7.71
2023-11-03T03:20:18.653Z,7.73
2023-11-03T03:22:45.271Z,7.75
2023-11-03T03:25:11.750Z,7.73
2023-11-03T03:27:38.275Z,7.70
2023-11-03T03:30:04.733Z,7.66
2023-11-03T03:32:31.467Z,7.63
2023-11-03T03:34:58.040Z,7.61
2023-11-03T03:37:24.493Z,7.54
2023-11-03T03:39:50.962Z,7.52
2023-11-03T03:42:17.417Z,7.49
2023-11-03T03:44:43.887Z,7.49
2023-11-03T03:47:10.386Z,7.45
2023-11-03T03:49:36.867Z,7.41
2023-11-03T03:52:03.324Z,7.42
2023-11-03T03:54:29.780Z,7.46
2023-11-03T03:56:56.239Z,7.46
2023-11-03T03:59:22.778Z,7.46
2023-11-03T04:01:49.241Z,7.42
2023-11-03T04:04:15.774Z,7.40
2023-11-03T04:06:42.334Z,7.37
2023-11-03T04:09:08.815Z,7.36
2023-11-03T04:11:35.271Z,7.36
2023-11-03T04:14:01.763Z,7.32
2023-11-03T04:16:28.910Z,7.27
2023-11-03T04:18:56.132Z,7.22
2023-11-03T04:21:22.607Z,7.19
2023-11-03T04:23:49.063Z,7.20
2023-11-03T04:26:15.528Z,7.20
2023-11-03T04:28:42.008Z,7.19
2023-11-03T04:31:08.478Z,7.15
2023-11-03T04:33:35.057Z,7.12
2023-11-03T04:36:01.546Z,7.06
2023-11-03T04:38:28.005Z,7.04
2023-11-03T04:40:54.475Z,7.01
2023-11-03T04:43:20.932Z,7.00
2023-11-03T04:45:47.387Z,6.97
2023-11-03T04:48:13.843Z,6.95
2023-11-03T04:50:40.355Z,6.95
2023-11-03T04:53:08.034Z,6.92
2023-11-03T04:55:34.903Z,6.92
2023-11-03T04:58:01.380Z,6.92
2023-11-03T05:00:27.840Z,6.97
2023-11-03T05:02:54.372Z,7.00
2023-11-03T05:05:20.923Z,7.04
2023-11-03T05:07:47.435Z,7.07
2023-11-03T05:10:13.926Z,7.10
2023-11-03T05:12:40.456Z,7.11
2023-11-03T05:15:06.961Z,7.12
2023-11-03T05:17:33.508Z,7.15
2023-11-03T05:19:59.999Z,7.16
2023-11-03T05:22:26.479Z,7.16
2023-11-03T05:24:52.988Z,7.18
2023-11-03T05:27:19.513Z,7.18
2023-11-03T05:29:46.050Z,7.19
2023-11-03T05:32:12.571Z,7.17
2023-11-03T05:34:39.029Z,7.17
2023-11-03T05:37:05.530Z,7.16
2023-11-03T05:39:32.455Z,7.15
2023-11-03T05:41:58.927Z,7.11
2023-11-03T05:44:25.421Z,7.11
2023-11-03T05:46:51.922Z,7.10
2023-11-03T05:49:18.482Z,7.07
2023-11-03T05:51:45.065Z,7.10
2023-11-03T05:54:11.530Z,7.11
2023-11-03T05:56:37.982Z,7.05
2023-11-03T05:59:04.758Z,7.02
2023-11-03T06:01:31.263Z,7.06
2023-11-03T06:03:57.798Z,7.06
2023-11-03T06:06:24.287Z,7.05
2023-11-03T06:08:50.756Z,7.05
2023-11-03T06:11:17.216Z,7.06
2023-11-03T06:13:43.675Z,6.99
2023-11-03T06:16:10.175Z,6.94
2023-11-03T06:18:36.712Z,6.90
2023-11-03T06:21:03.248Z,6.88
2023-11-03T06:23:29.705Z,6.83
2023-11-03T06:25:56.148Z,6.79
2023-11-03T06:28:22.649Z,6.75
2023-11-03T06:30:49.165Z,6.68
2023-11-03T06:33:15.616Z,6.69
2023-11-03T06:35:42.079Z,6.70
2023-11-03T06:38:08.546Z,6.71
2023-11-03T06:40:35.016Z,6.72
2023-11-03T06:43:01.509Z,6.73
2023-11-03T06:45:27.994Z,6.68
2023-11-03T06:47:54.511Z,6.63
2023-11-03T06:50:20.981Z,6.64
2023-11-03T06:52:47.512Z,6.65
2023-11-03T06:55:14.511Z,6.67
2023-11-03T06:57:41.216Z,6.72
2023-11-03T07:00:07.777Z,6.78
2023-11-03T07:02:34.371Z,6.82
2023-11-03T07:05:00.952Z,6.83
2023-11-03T07:07:27.424Z,6.84
2023-11-03T07:09:53.917Z,6.84
2023-11-03T07:12:20.993Z,6.81
2023-11-03T07:14:47.897Z,6.79
2023-11-03T07:17:14.376Z,6.77
2023-11-03T07:19:40.952Z,6.78
2023-11-03T07:22:07.493Z,6.78
2023-11-03T07:24:33.949Z,6.80
2023-11-03T07:27:00.431Z,6.86
2023-11-03T07:29:26.896Z,6.88
2023-11-03T07:31:53.337Z,6.95
2023-11-03T07:34:20.058Z,7.03
2023-11-03T07:36:46.633Z,7.08
2023-11-03T07:39:13.082Z,7.10
2023-11-03T07:41:39.538Z,7.14
2023-11-03T07:44:06.167Z,7.18
2023-11-03T07:46:32.659Z,7.22
2023-11-03T07:48:59.266Z,7.27
2023-11-03T07:51:25.962Z,7.35
2023-11-03T07:53:54.569Z,7.38
2023-11-03T07:56:22.254Z,7.40
2023-11-03T07:59:01.590Z,7.41
2023-11-03T08:01:28.054Z,7.41
2023-11-03T08:03:54.604Z,7.40
2023-11-03T08:06:21.157Z,7.36
2023-11-03T08:08:47.658Z,7.37
2023-11-03T08:11:14.131Z,7.40
2023-11-03T08:13:40.578Z,7.41
2023-11-03T08:16:07.060Z,7.48
2023-11-03T08:18:33.549Z,7.54
2023-11-03T08:21:00.026Z,7.62
2023-11-03T08:23:26.499Z,7.68
2023-11-03T08:25:52.929Z,7.74
2023-11-03T08:28:19.437Z,7.82
2023-11-03T08:30:46.047Z,7.82
2023-11-03T08:33:12.581Z,7.83
2023-11-03T08:35:39.079Z,7.98
2023-11-03T08:38:05.541Z,8.06
2023-11-03T08:40:32.112Z,8.20
2023-11-03T08:42:58.620Z,8.38
2023-11-03T08:45:26.675Z,8.53
2023-11-03T08:47:53.331Z,8.69
2023-11-03T08:50:19.806Z,8.89
2023-11-03T08:52:46.339Z,9.09
2023-11-03T08:55:12.920Z,9.24
2023-11-03T08:57:39.393Z,9.41
2023-11-03T09:00:05.874Z,9.36
2023-11-03T09:02:32.417Z,9.46
2023-11-03T09:04:58.916Z,9.51
2023-11-03T09:07:26.244Z,9.49
2023-11-03T09:09:52.728Z,9.50
2023-11-03T09:12:19.235Z,9.44
2023-11-03T09:14:45.779Z,9.45
2023-11-03T09:17:12.265Z,9.42
2023-11-03T09:19:38.746Z,9.34
2023-11-03T09:22:05.242Z,9.26
2023-11-03T09:24:31.769Z,9.15
2023-11-03T09:27:04.389Z,9.13
2023-11-03T09:29:35.467Z,9.14
2023-11-03T09:32:01.974Z,9.21
2023-11-03T09:34:30.364Z,9.40
2023-11-03T09:36:57.714Z,9.43
2023-11-03T09:39:24.187Z,9.48
2023-11-03T09:41:50.649Z,9.74
2023-11-03T09:44:17.117Z,9.73
2023-11-03T09:46:43.573Z,9.77
2023-11-03T09:49:10.060Z,9.95
2023-11-03T09:51:36.558Z,10.06
2023-11-03T09:54:03.033Z,10.14
2023-11-03T09:56:29.494Z,10.01
2023-11-03T09:58:56.008Z,9.96
2023-11-03T10:01:22.589Z,9.88
2023-11-03T10:03:49.181Z,9.77
2023-11-03T10:06:15.741Z,9.74
2023-11-03T10:08:42.197Z,9.68
2023-11-03T10:11:08.686Z,9.64
2023-11-03T10:13:35.194Z,9.54
2023-11-03T10:16:01.693Z,9.41
2023-11-03T10:18:28.198Z,9.31
2023-11-03T10:20:54.714Z,9.24
2023-11-03T10:23:21.200Z,9.19
2023-11-03T10:25:47.652Z,9.12
2023-11-03T10:28:14.149Z,9.08
2023-11-03T10:30:40.620Z,9.03
2023-11-03T10:33:07.140Z,9.03
2023-11-03T10:35:33.640Z,8.94
2023-11-03T10:38:00.090Z,8.85
2023-11-03T10:40:26.601Z,8.87
2023-11-03T10:42:53.230Z,8.95
2023-11-03T10:45:20.100Z,9.06
2023-11-03T10:47:46.707Z,9.22
2023-11-03T10:50:13.421Z,9.36
2023-11-03T10:52:40.024Z,9.39
2023-11-03T10:55:06.683Z,9.50
2023-11-03T10:57:39.893Z,9.52
2023-11-03T11:00:08.043Z,9.57
2023-11-03T11:02:34.681Z,9.68
2023-11-03T11:05:01.255Z,9.72
2023-11-03T11:07:27.753Z,9.69
2023-11-03T11:09:54.335Z,9.67
2023-11-03T11:12:21.371Z,9.65
2023-11-03T11:14:48.954Z,9.66
2023-11-03T11:17:15.873Z,9.58
2023-11-03T11:19:42.381Z,9.63
2023-11-03T11:22:08.903Z,9.76
2023-11-03T11:24:35.399Z,9.90
2023-11-03T11:27:01.865Z,10.04
2023-11-03T11:29:28.371Z,10.01
2023-11-03T11:31:54.872Z,10.14
2023-11-03T11:34:21.569Z,10.29
2023-11-03T11:36:48.182Z,10.46
2023-11-03T11:39:16.842Z,10.61
2023-11-03T11:41:44.436Z,10.73
2023-11-03T11:44:12.063Z,10.80
2023-11-03T11:46:39.637Z,10.86
2023-11-03T11:49:08.101Z,10.86
2023-11-03T11:51:34.760Z,10.74
2023-11-03T11:54:01.376Z,10.74
2023-11-03T11:56:27.955Z,10.78
2023-11-03T11:58:55.663Z,10.67
2023-11-03T12:01:22.663Z,10.59
2023-11-03T12:03:49.212Z,10.51
2023-11-03T12:06:17.315Z,10.57
2023-11-03T12:08:43.963Z,10.64
2023-11-03T12:11:11.479Z,10.66
2023-11-03T12:13:39.071Z,10.64
2023-11-03T12:16:05.784Z,10.57
2023-11-03T12:18:32.329Z,10.49
2023-11-03T12:20:58.813Z,10.44
2023-11-03T12:23:25.440Z,10.42
2023-11-03T12:25:52.014Z,10.36
2023-11-03T12:28:19.684Z,10.32
2023-11-03T12:30:47.199Z,10.25
2023-11-03T12:33:13.841Z,10.23
2023-11-03T12:35:40.368Z,10.16
2023-11-03T12:38:07.046Z,10.14
2023-11-03T12:40:34.609Z,10.12
2023-11-03T12:43:02.200Z,10.04
2023-11-03T12:45:29.756Z,9.99
2023-11-03T12:47:56.777Z,9.96
2023-11-03T12:50:23.957Z,9.94
2023-11-03T12:52:50.582Z,9.86
2023-11-03T12:55:18.220Z,9.82
2023-11-03T12:57:44.743Z,9.82
2023-11-03T13:00:12.316Z,9.77
2023-11-03T13:02:39.907Z,9.75
2023-11-03T13:05:06.403Z,9.71
2023-11-03T13:07:33.097Z,9.67
2023-11-03T13:09:59.738Z,9.60
2023-11-03T13:12:26.331Z,9.57
2023-11-03T13:14:52.770Z,9.56
2023-11-03T13:17:19.524Z,9.54
2023-11-03T13:19:47.072Z,9.53
2023-11-03T13:22:14.683Z,9.47
2023-11-03T13:24:41.264Z,9.41
2023-11-03T13:27:08.848Z,9.41
2023-11-03T13:29:35.289Z,9.35
2023-11-03T13:32:01.759Z,9.30
2023-11-03T13:34:28.322Z,9.19
2023-11-03T13:36:54.814Z,9.12
2023-11-03T13:39:21.268Z,9.07
2023-11-03T13:41:47.724Z,9.06
2023-11-03T13:44:14.174Z,9.04
2023-11-03T13:46:40.825Z,9.05
2023-11-03T13:49:07.478Z,9.06
2023-11-03T13:51:34.004Z,9.07
2023-11-03T13:54:00.478Z,9.12
2023-11-03T13:56:27.077Z,9.11
2023-11-03T13:58:53.586Z,9.06
2023-11-03T14:01:20.086Z,9.03
2023-11-03T14:03:46.567Z,8.95
2023-11-03T14:06:13.062Z,8.90
2023-11-03T14:08:39.523Z,8.84
2023-11-03T14:11:06.001Z,8.80
2023-11-03T14:13:32.473Z,8.79
2023-11-03T14:15:58.998Z,8.74
2023-11-03T14:18:25.488Z,8.73
2023-11-03T14:20:52.008Z,8.80
2023-11-03T14:23:18.442Z,8.81
2023-11-03T14:25:44.970Z,8.82
2023-11-03T14:28:11.474Z,8.86
2023-11-03T14:30:37.966Z,8.90
2023-11-03T14:33:04.495Z,8.88
2023-11-03T14:35:30.992Z,8.87
2023-11-03T14:37:57.448Z,8.86
2023-11-03T14:40:23.964Z,8.81
2023-11-03T14:42:50.478Z,8.78
2023-11-03T14:45:17.113Z,8.71
2023-11-03T14:47:43.648Z,8.68
2023-11-03T14:50:10.161Z,8.64
2023-11-03T14:52:36.698Z,8.63
2023-11-03T14:55:03.186Z,8.64
2023-11-03T14:57:29.655Z,8.65
2023-11-03T14:59:56.132Z,8.64
2023-11-03T15:02:22.611Z,8.60
2023-11-03T15:04:49.205Z,8.59
2023-11-03T15:07:15.785Z,8.59
2023-11-03T15:09:42.274Z,8.61
2023-11-03T15:12:08.739Z,8.60
2023-11-03T15:14:35.221Z,8.60
2023-11-03T15:17:01.747Z,8.60
2023-11-03T15:19:28.277Z,8.58
2023-11-03T15:21:54.767Z,8.60
2023-11-03T15:24:21.236Z,8.59
2023-11-03T15:26:47.691Z,8.60
2023-11-03T15:29:14.144Z,8.62
2023-11-03T15:31:40.643Z,8.58
2023-11-03T15:34:07.152Z,8.55
2023-11-03T15:36:33.625Z,8.50
2023-11-03T15:39:00.081Z,8.48
2023-11-03T15:41:29.091Z,8.45
2023-11-03T15:43:56.018Z,8.43
2023-11-03T15:46:22.540Z,8.36
2023-11-03T15:48:49.065Z,8.32
2023-11-03T15:51:15.606Z,8.27
2023-11-03T15:53:42.042Z,8.17
2023-11-03T15:56:08.545Z,8.10
2023-11-03T15:58:35.061Z,7.98
2023-11-03T16:01:01.591Z,7.95
2023-11-03T16:03:28.173Z,7.90
2023-11-03T16:05:54.817Z,7.89
2023-11-03T16:08:21.297Z,7.84
2023-11-03T16:10:47.914Z,7.84
2023-11-03T16:13:14.863Z,7.86
2023-11-03T16:15:41.661Z,7.84
2023-11-03T16:18:08.193Z,7.87
2023-11-03T16:20:34.828Z,7.85
2023-11-03T16:23:01.320Z,7.83
2023-11-03T16:25:27.849Z,7.83
2023-11-03T16:27:54.337Z,7.84
2023-11-03T16:30:22.285Z,7.83
2023-11-03T16:32:49.209Z,7.79
2023-11-03T16:35:15.778Z,7.81
2023-11-03T16:37:42.331Z,7.81
2023-11-03T16:40:08.915Z,7.79
2023-11-03T16:42:35.400Z,7.74
2023-11-03T16:45:01.888Z,7.75
2023-11-03T16:47:28.373Z,7.75
2023-11-03T16:49:54.912Z,7.68
2023-11-03T16:52:21.473Z,7.69
2023-11-03T16:54:47.972Z,7.70
2023-11-03T16:57:14.433Z,7.67
2023-11-03T16:59:40.888Z,7.62
2023-11-03T17:02:07.879Z,7.61
2023-11-03T17:04:34.413Z,7.59
2023-11-03T17:07:00.908Z,7.57
2023-11-03T17:09:27.398Z,7.51
2023-11-03T17:11:53.869Z,7.50
2023-11-03T17:14:20.314Z,7.48
2023-11-03T17:16:46.906Z,7.44
2023-11-03T17:19:13.413Z,7.42
2023-11-03T17:21:39.893Z,7.36
2023-11-03T17:24:06.370Z,7.33
2023-11-03T17:26:32.886Z,7.29
2023-11-03T17:28:59.360Z,7.30
2023-11-03T17:31:25.854Z,7.26
2023-11-03T17:33:52.329Z,7.24
2023-11-03T17:36:18.798Z,7.24
2023-11-03T17:38:45.253Z,7.24
2023-11-03T17:41:11.753Z,7.27
2023-11-03T17:43:38.270Z,7.30
2023-11-03T17:46:04.842Z,7.29
2023-11-03T17:48:31.315Z,7.31
2023-11-03T17:50:57.779Z,7.31
2023-11-03T17:53:24.229Z,7.26
2023-11-03T17:55:50.797Z,7.22
2023-11-03T17:58:17.408Z,7.19
2023-11-03T18:00:43.902Z,7.16
2023-11-03T18:03:10.406Z,7.11
2023-11-03T18:05:36.903Z,7.10
2023-11-03T18:08:03.330Z,7.12
2023-11-03T18:10:29.946Z,7.14
2023-11-03T18:12:56.422Z,7.20
2023-11-03T18:15:22.913Z,7.22
2023-11-03T18:17:49.416Z,7.25
2023-11-03T18:20:15.904Z,7.22
2023-11-03T18:22:42.684Z,7.19
2023-11-03T18:25:09.375Z,7.17
2023-11-03T18:27:35.855Z,7.13
2023-11-03T18:30:02.324Z,7.11
2023-11-03T18:32:28.832Z,7.08
2023-11-03T18:34:55.436Z,7.08
2023-11-03T18:37:21.994Z,7.07
2023-11-03T18:39:48.489Z,6.97
2023-11-03T18:42:14.926Z,6.91
2023-11-03T18:44:41.365Z,6.82
2023-11-03T18:47:07.823Z,6.72
2023-11-03T18:52:03.677Z,6.58
2023-11-03T18:58:14.857Z,6.55
2023-11-03T19:04:22.072Z,6.54
2023-11-03T19:06:03.376Z,6.53
2023-11-03T19:07:48.406Z,6.49
2023-11-03T19:10:14.984Z,6.47
2023-11-03T19:12:41.493Z,6.44
2023-11-03T19:15:08.095Z,6.43
2023-11-03T19:17:36.837Z,6.48
2023-11-03T19:20:04.504Z,6.48
2023-11-03T19:22:30.949Z,6.49
2023-11-03T19:24:57.461Z,6.42
2023-11-03T19:27:23.919Z,6.37
2023-11-03T19:29:50.433Z,6.37
2023-11-03T19:32:16.911Z,6.42
2023-11-03T19:34:43.446Z,6.39
2023-11-03T19:37:09.892Z,6.37
2023-11-03T19:39:36.378Z,6.37
2023-11-03T19:42:02.919Z,6.39
2023-11-03T19:44:29.355Z,6.39
2023-11-03T19:46:55.838Z,6.40
2023-11-03T19:49:22.359Z,6.37
2023-11-03T19:51:48.835Z,6.30
2023-11-03T19:54:15.313Z,6.27
2023-11-03T19:56:41.887Z,6.27
2023-11-03T19:59:08.424Z,6.27
2023-11-03T20:01:34.910Z,6.24
2023-11-03T20:04:01.412Z,6.26
2023-11-03T20:06:27.885Z,6.32
2023-11-03T20:08:54.338Z,6.40
2023-11-03T20:11:22.168Z,6.43
2023-11-03T20:13:48.761Z,6.45
2023-11-03T20:16:15.216Z,6.43
2023-11-03T20:18:41.810Z,6.40
2023-11-03T20:21:09.650Z,6.41
2023-11-03T20:23:36.325Z,6.45
2023-11-03T20:26:02.760Z,6.45
2023-11-03T20:28:29.219Z,6.46
2023-11-03T20:30:55.664Z,6.52
2023-11-03T20:33:22.190Z,6.57
2023-11-03T20:35:48.710Z,6.59
2023-11-03T20:38:15.187Z,6.64
2023-11-03T20:40:41.696Z,6.72
2023-11-03T20:43:08.125Z,6.72
2023-11-03T20:45:34.619Z,6.73
2023-11-03T20:48:01.185Z,6.75
2023-11-03T20:50:27.719Z,6.74
2023-11-03T20:52:54.157Z,6.76
2023-11-03T20:55:20.611Z,6.77
2023-11-03T20:57:47.207Z,6.80
2023-11-03T21:00:13.859Z,6.78
2023-11-03T21:02:40.411Z,6.74
2023-11-03T21:05:07.009Z,6.78
2023-11-03T21:07:33.495Z,6.82
2023-11-03T21:09:59.952Z,6.77
2023-11-03T21:12:26.416Z,6.78
2023-11-03T21:14:52.890Z,6.74
2023-11-03T21:17:19.362Z,6.75
2023-11-03T21:19:45.870Z,6.76
2023-11-03T21:22:12.376Z,6.80
2023-11-03T21:24:38.891Z,6.77
2023-11-03T21:27:05.387Z,6.74
2023-11-03T21:29:31.854Z,6.73
2023-11-03T21:31:58.321Z,6.74
2023-11-03T21:34:24.947Z,6.70
2023-11-03T21:36:51.514Z,6.66
2023-11-03T21:39:18.392Z,6.62
2023-11-03T21:41:44.958Z,6.64
2023-11-03T21:44:11.427Z,6.69
2023-11-03T21:46:37.875Z,6.68
2023-11-03T21:49:04.422Z,6.68
2023-11-03T21:51:30.993Z,6.69
2023-11-03T21:53:57.459Z,6.71
2023-11-03T21:56:23.992Z,6.69
2023-11-03T21:58:50.439Z,6.71
2023-11-03T22:01:16.956Z,6.71
2023-11-03T22:03:43.460Z,6.69
2023-11-03T22:06:09.978Z,6.68
2023-11-03T22:08:36.474Z,6.66
2023-11-03T22:11:02.954Z,6.63
2023-11-03T22:13:29.420Z,6.64
2023-11-03T22:15:55.874Z,6.66
2023-11-03T22:18:22.558Z,6.66
2023-11-03T22:20:51.170Z,6.70
2023-11-03T22:23:18.328Z,6.72
2023-11-03T22:25:44.791Z,6.72
2023-11-03T22:28:11.249Z,6.72
2023-11-03T22:30:37.741Z,6.75
2023-11-03T22:33:04.279Z,6.75
2023-11-03T22:35:30.828Z,6.81
2023-11-03T22:37:57.309Z,6.83
2023-11-03T22:40:23.760Z,6.86
2023-11-03T22:42:50.258Z,6.87
2023-11-03T22:45:16.730Z,6.91
2023-11-03T22:47:43.356Z,6.94
2023-11-03T22:50:09.899Z,6.99
2023-11-03T22:52:36.360Z,6.98
2023-11-03T22:55:02.909Z,7.00
2023-11-03T22:57:29.433Z,7.03
2023-11-03T22:59:55.917Z,7.06
2023-11-03T23:02:22.427Z,7.03
2023-11-03T23:04:48.910Z,7.06
2023-11-03T23:07:15.370Z,7.05
2023-11-03T23:09:41.859Z,7.03
2023-11-03T23:12:08.418Z,7.01
2023-11-03T23:14:34.856Z,7.02
2023-11-03T23:17:01.292Z,7.05
2023-11-03T23:19:27.899Z,7.00
2023-11-03T23:21:54.411Z,6.99
2023-11-03T23:24:20.935Z,6.95
2023-11-03T23:26:47.407Z,6.92
2023-11-03T23:29:13.863Z,6.91
2023-11-03T23:31:40.324Z,6.90
2023-11-03T23:34:07.040Z,6.88
2023-11-03T23:36:33.776Z,6.86
2023-11-03T23:39:00.277Z,6.83
2023-11-03T23:41:26.773Z,6.77
2023-11-03T23:43:53.233Z,6.79
2023-11-03T23:46:19.677Z,6.78
2023-11-03T23:48:46.176Z,6.78
2023-11-03T23:51:12.809Z,6.78
2023-11-03T23:53:39.325Z,6.75
2023-11-03T23:56:05.799Z,6.72
2023-11-03T23:58:32.310Z,6.74
